Time;durP1;ratioP1;P1;durP2;ratioP2;P2;SDS_P1;SDS_P2;PMS_P1;PMS_P2;Temp;Humidity;BMP_temperature;BMP_pressure;BME280_temperature;BME280_humidity;BME280_pressure;Samples;Min_cycle;Max_cycle;Signal;HPM_P1;HPM_P2
2023/10/24 04:11:21;;;;;;;;;;;13.70;99.90;;;;;;2617330;47;20281;-76
2023/10/24 04:13:52;;;;;;;;;;;13.40;99.90;;;;;;2615258;54;19950;-75
2023/10/24 04:16:21;;;;;;;;;;;13.30;99.90;;;;;;2615806;54;19946;-76
2023/10/24 04:18:51;;;;;;;;;;;13.30;99.90;;;;;;2616911;54;20030;-76
2023/10/24 04:21:21;;;;;;;;;;;13.30;99.90;;;;;;2615986;54;19955;-76
2023/10/24 04:23:51;;;;;;;;;;;13.30;99.90;;;;;;2615829;47;20018;-76
2023/10/24 04:26:24;;;;;;;;;;;13.30;99.90;;;;;;2615999;47;19955;-75
2023/10/24 04:28:55;;;;;;;;;;;13.30;99.90;;;;;;2616109;54;19969;-76
2023/10/24 04:31:24;;;;;;;;;;;13.30;99.90;;;;;;2616189;54;19950;-75
2023/10/24 04:33:54;;;;;;;;;;;13.30;99.90;;;;;;2616155;54;19997;-76
2023/10/24 04:36:24;;;;;;;;;;;13.30;99.90;;;;;;2619034;39;20085;-76
2023/10/24 04:38:54;;;;;;;;;;;13.30;99.90;;;;;;2622150;47;19943;-78
2023/10/24 04:41:37;;;;;;;;;;;13.30;99.90;;;;;;2622889;47;19946;-76
2023/10/24 04:44:09;;;;;;;;;;;13.30;99.90;;;;;;2618308;47;19934;-76
2023/10/24 04:46:39;;;;;;;;;;;13.30;99.90;;;;;;2617999;47;19954;-77
2023/10/24 04:49:09;;;;;;;;;;;13.30;99.90;;;;;;2618843;54;19946;-76
2023/10/24 04:51:38;;;;;;;;;;;13.30;99.90;;;;;;2618694;47;19946;-78
2023/10/24 04:54:08;;;;;;;;;;;13.30;99.90;;;;;;2618664;54;19953;-79
2023/10/24 04:56:41;;;;;;;;;;;13.30;99.90;;;;;;2618659;54;20041;-76
2023/10/24 04:59:11;;;;;;;;;;;13.30;99.90;;;;;;2618690;47;19947;-76
2023/10/24 05:01:41;;;;;;;;;;;13.30;99.90;;;;;;2618518;54;19951;-77
2023/10/24 05:04:11;;;;;;;;;;;13.30;99.90;;;;;;2618267;47;20744;-76
2023/10/24 05:06:41;;;;;;;;;;;13.30;99.90;;;;;;2618591;39;20356;-77
2023/10/24 05:09:11;;;;;;;;;;;13.30;99.90;;;;;;2618653;54;20074;-77
2023/10/24 05:11:43;;;;;;;;;;;13.20;99.90;;;;;;2618588;54;20026;-76
2023/10/24 05:14:13;;;;;;;;;;;13.20;99.90;;;;;;2618449;47;19947;-76
2023/10/24 05:16:45;;;;;;;;;;;13.30;99.90;;;;;;2618492;54;19946;-77
2023/10/24 05:19:15;;;;;;;;;;;13.20;99.90;;;;;;2618327;39;21613;-76
2023/10/24 05:21:45;;;;;;;;;;;13.20;99.90;;;;;;2618408;47;19947;-77
2023/10/24 05:24:15;;;;;;;;;;;13.20;99.90;;;;;;2617926;54;19954;-76
2023/10/24 05:26:48;;;;;;;;;;;13.10;99.90;;;;;;2617583;54;19954;-75
2023/10/24 05:29:17;;;;;;;;;;;13.10;99.90;;;;;;2621012;47;19943;-80
2023/10/24 05:31:47;;;;;;;;;;;13.10;99.90;;;;;;2617014;46;19954;-75
2023/10/24 05:34:17;;;;;;;;;;;13.10;99.90;;;;;;2607128;39;20467;-77
2023/10/24 05:36:48;;;;;;;;;;;13.10;99.90;;;;;;2608648;47;19953;-75
2023/10/24 05:39:19;;;;;;;;;;;13.10;99.90;;;;;;2609879;31;20457;-74
2023/10/24 05:41:51;;;;;;;;;;;13.10;99.90;;;;;;2609186;54;19954;-74
2023/10/24 05:44:21;;;;;;;;;;;13.10;99.90;;;;;;2608880;54;19950;-74
2023/10/24 05:46:51;;;;;;;;;;;13.10;99.90;;;;;;2609169;47;19951;-75
2023/10/24 05:49:24;;;;;;;;;;;13.10;99.90;;;;;;2609263;51;20533;-75
2023/10/24 05:51:54;;;;;;;;;;;13.10;99.90;;;;;;2611732;54;19946;-75
2023/10/24 05:54:24;;;;;;;;;;;13.10;99.90;;;;;;2615967;54;19939;-75
2023/10/24 05:56:57;;;;;;;;;;;13.10;99.90;;;;;;2617851;54;19947;-75
2023/10/24 05:59:27;;;;;;;;;;;13.10;99.90;;;;;;2616106;47;19950;-75
2023/10/24 06:01:57;;;;;;;;;;;13.10;99.90;;;;;;2617864;47;19965;-75
2023/10/24 06:04:27;;;;;;;;;;;13.10;99.90;;;;;;2618252;54;19950;-75
2023/10/24 06:06:57;;;;;;;;;;;13.10;99.90;;;;;;2617937;54;19939;-75
2023/10/24 06:09:27;;;;;;;;;;;13.10;99.90;;;;;;2618525;47;19939;-75
2023/10/24 06:12:00;;;;;;;;;;;13.10;99.90;;;;;;2618505;54;19955;-74
2023/10/24 06:14:30;;;;;;;;;;;13.20;99.90;;;;;;2617898;47;19939;-74
2023/10/24 06:16:59;;;;;;;;;;;13.20;99.90;;;;;;2619778;31;20468;-75
2023/10/24 06:19:29;;;;;;;;;;;13.10;99.90;;;;;;2618828;39;20605;-75
2023/10/24 06:21:59;;;;;;;;;;;13.10;99.90;;;;;;2619018;47;19949;-75
2023/10/24 06:24:29;;;;;;;;;;;13.20;99.90;;;;;;2618306;47;19947;-75
2023/10/24 06:27:02;;;;;;;;;;;13.20;99.90;;;;;;2617847;47;20464;-75
2023/10/24 06:29:32;;;;;;;;;;;13.20;99.90;;;;;;2618087;47;19946;-75
2023/10/24 06:32:02;;;;;;;;;;;13.20;99.90;;;;;;2617714;54;19958;-75
2023/10/24 06:34:33;;;;;;;;;;;13.20;99.90;;;;;;2617624;47;20837;-76
2023/10/24 06:37:03;;;;;;;;;;;13.20;99.90;;;;;;2619204;47;19935;-75
2023/10/24 06:39:33;;;;;;;;;;;13.20;99.90;;;;;;2619362;39;20315;-75
2023/10/24 06:42:06;;;;;;;;;;;13.20;99.90;;;;;;2618430;47;19949;-75
2023/10/24 06:44:36;;;;;;;;;;;13.20;99.90;;;;;;2617597;47;19943;-75
2023/10/24 06:47:06;;;;;;;;;;;13.20;99.90;;;;;;2616749;54;19939;-75
2023/10/24 06:49:36;;;;;;;;;;;13.20;99.90;;;;;;2618196;51;20483;-74
2023/10/24 06:52:06;;;;;;;;;;;13.20;99.90;;;;;;2618050;39;20345;-75
2023/10/24 06:54:37;;;;;;;;;;;13.30;99.90;;;;;;2617239;54;20441;-76
2023/10/24 06:57:10;;;;;;;;;;;13.30;99.90;;;;;;2618213;47;19959;-75
2023/10/24 06:59:39;;;;;;;;;;;13.30;99.90;;;;;;2618302;47;20071;-76
2023/10/24 07:02:10;;;;;;;;;;;13.30;99.90;;;;;;2618116;47;19943;-76
2023/10/24 07:04:40;;;;;;;;;;;13.30;99.90;;;;;;2618876;54;19955;-76
2023/10/24 07:07:10;;;;;;;;;;;13.30;99.90;;;;;;2618729;54;19950;-76
2023/10/24 07:09:40;;;;;;;;;;;13.30;99.90;;;;;;2618968;47;20436;-76
2023/10/24 07:12:12;;;;;;;;;;;13.30;99.90;;;;;;2619178;54;19939;-75
2023/10/24 07:14:42;;;;;;;;;;;13.30;99.90;;;;;;2618642;47;19939;-76
2023/10/24 07:17:12;;;;;;;;;;;13.30;99.90;;;;;;2619324;54;19950;-76
2023/10/24 07:19:42;;;;;;;;;;;13.30;99.90;;;;;;2619218;54;19962;-76
2023/10/24 07:22:12;;;;;;;;;;;13.30;99.90;;;;;;2619459;54;19938;-76
2023/10/24 07:24:42;;;;;;;;;;;13.30;99.90;;;;;;2619160;47;19938;-76
2023/10/24 07:27:15;;;;;;;;;;;13.30;99.90;;;;;;2619493;47;19946;-77
2023/10/24 07:29:45;;;;;;;;;;;13.30;99.90;;;;;;2619482;54;19974;-76
2023/10/24 07:32:15;;;;;;;;;;;13.30;99.90;;;;;;2619758;46;19985;-77
2023/10/24 07:34:45;;;;;;;;;;;13.40;99.90;;;;;;2619456;47;19951;-76
2023/10/24 07:37:15;;;;;;;;;;;13.40;99.90;;;;;;2619049;47;20424;-76
2023/10/24 07:39:44;;;;;;;;;;;13.40;99.90;;;;;;2619660;54;20499;-76
2023/10/24 07:42:17;;;;;;;;;;;13.40;99.90;;;;;;2618678;54;20830;-76
2023/10/24 07:44:47;;;;;;;;;;;13.10;99.90;;;;;;2619248;47;19947;-77
2023/10/24 07:47:17;;;;;;;;;;;13.40;99.90;;;;;;2618253;54;20523;-76
2023/10/24 07:49:47;;;;;;;;;;;13.40;99.90;;;;;;2622892;54;19951;-77
2023/10/24 07:52:17;;;;;;;;;;;13.40;99.90;;;;;;2622077;47;19947;-76
2023/10/24 07:54:47;;;;;;;;;;;13.40;99.90;;;;;;2621076;47;19958;-76
2023/10/24 07:57:19;;;;;;;;;;;13.40;99.90;;;;;;2624372;54;19938;-77
2023/10/24 08:00:07;;;;;;;;;;;13.40;99.90;;;;;;2623607;47;19939;-78
2023/10/24 08:03:18;;;;;;;;;;;13.40;99.90;;;;;;2629452;39;20634;-77
2023/10/24 08:05:48;;;;;;;;;;;13.50;99.90;;;;;;2622722;47;19947;-74
2023/10/24 08:08:18;;;;;;;;;;;13.50;99.90;;;;;;2615344;54;19954;-73
2023/10/24 08:10:48;;;;;;;;;;;13.50;99.90;;;;;;2616724;54;19945;-73
2023/10/24 08:13:20;;;;;;;;;;;13.60;99.90;;;;;;2615643;46;19939;-73
2023/10/24 08:15:53;;;;;;;;;;;13.60;99.90;;;;;;2615305;47;20464;-75
2023/10/24 08:18:23;;;;;;;;;;;13.60;99.90;;;;;;2615538;46;19957;-73
2023/10/24 08:20:53;;;;;;;;;;;13.60;99.90;;;;;;2615968;54;19946;-73
2023/10/24 08:23:22;;;;;;;;;;;13.60;99.90;;;;;;2616016;54;20017;-74
2023/10/24 08:25:52;;;;;;;;;;;13.70;99.90;;;;;;2616563;47;20425;-73
2023/10/24 08:28:25;;;;;;;;;;;13.70;99.90;;;;;;2617403;47;19942;-73
2023/10/24 08:30:55;;;;;;;;;;;13.70;99.90;;;;;;2617079;47;19967;-74
2023/10/24 08:33:25;;;;;;;;;;;13.70;99.90;;;;;;2616540;47;19946;-73
2023/10/24 08:35:55;;;;;;;;;;;13.70;99.90;;;;;;2617524;47;19947;-73
2023/10/24 08:38:25;;;;;;;;;;;13.70;99.90;;;;;;2617933;47;19953;-73
2023/10/24 08:40:54;;;;;;;;;;;13.70;99.90;;;;;;2617229;47;20660;-73
2023/10/24 08:43:27;;;;;;;;;;;13.70;99.90;;;;;;2617114;47;20458;-76
2023/10/24 08:45:58;;;;;;;;;;;13.70;99.90;;;;;;2616092;47;19963;-73
2023/10/24 08:48:28;;;;;;;;;;;13.70;99.90;;;;;;2615782;47;20030;-73
2023/10/24 08:50:58;;;;;;;;;;;13.70;99.90;;;;;;2616300;47;19954;-75
2023/10/24 08:53:28;;;;;;;;;;;13.70;99.90;;;;;;2616345;47;19946;-74
2023/10/24 08:55:58;;;;;;;;;;;13.70;99.90;;;;;;2615444;54;20105;-74
2023/10/24 08:58:34;;;;;;;;;;;13.70;99.90;;;;;;2616538;54;19945;-73
2023/10/24 09:01:04;;;;;;;;;;;13.70;99.90;;;;;;2616021;54;19970;-72
2023/10/24 09:03:34;;;;;;;;;;;13.70;99.90;;;;;;2616900;47;19950;-73
2023/10/24 09:06:05;;;;;;;;;;;13.80;99.90;;;;;;2616425;54;19950;-73
2023/10/24 09:08:35;;;;;;;;;;;13.70;99.90;;;;;;2617288;54;19970;-77
2023/10/24 09:11:05;;;;;;;;;;;13.70;99.90;;;;;;2617247;54;20465;-72
2023/10/24 09:13:37;;;;;;;;;;;13.70;99.90;;;;;;2617021;54;19954;-73
2023/10/24 09:16:08;;;;;;;;;;;13.80;99.90;;;;;;2616561;47;19943;-72
2023/10/24 09:18:38;;;;;;;;;;;13.80;99.90;;;;;;2616912;47;19950;-73
2023/10/24 09:21:09;;;;;;;;;;;13.80;99.90;;;;;;2617391;54;19942;-73
2023/10/24 09:23:39;;;;;;;;;;;13.80;99.90;;;;;;2617390;47;19946;-73
2023/10/24 09:26:11;;;;;;;;;;;13.80;99.90;;;;;;2617752;39;20373;-71
2023/10/24 09:28:44;;;;;;;;;;;13.80;99.90;;;;;;2617785;47;19954;-72
2023/10/24 09:31:14;;;;;;;;;;;13.80;99.90;;;;;;2619489;54;20074;-72
2023/10/24 09:33:44;;;;;;;;;;;13.80;99.90;;;;;;2618782;39;20369;-73
2023/10/24 09:36:14;;;;;;;;;;;13.80;99.90;;;;;;2616879;54;19935;-73
2023/10/24 09:38:48;;;;;;;;;;;13.80;99.90;;;;;;2616774;54;20062;-72
2023/10/24 09:41:18;;;;;;;;;;;13.80;99.90;;;;;;2616403;54;19954;-72
2023/10/24 09:43:51;;;;;;;;;;;13.80;99.90;;;;;;2616574;46;19947;-72
2023/10/24 09:46:21;;;;;;;;;;;13.80;99.90;;;;;;2616527;54;19945;-72
2023/10/24 09:48:52;;;;;;;;;;;13.80;99.90;;;;;;2616943;54;19939;-72
2023/10/24 09:51:22;;;;;;;;;;;13.80;99.90;;;;;;2616777;54;20058;-72
2023/10/24 09:53:52;;;;;;;;;;;13.80;99.90;;;;;;2617114;54;19953;-73
2023/10/24 09:56:23;;;;;;;;;;;13.80;99.90;;;;;;2616258;54;19938;-72
2023/10/24 09:58:56;;;;;;;;;;;13.80;99.90;;;;;;2617651;54;19947;-72
2023/10/24 10:01:27;;;;;;;;;;;13.80;99.90;;;;;;2616518;54;19947;-74
2023/10/24 10:04:00;;;;;;;;;;;13.80;99.90;;;;;;2616351;54;20464;-73
2023/10/24 10:06:30;;;;;;;;;;;13.80;99.90;;;;;;2615919;54;19942;-73
2023/10/24 10:09:21;;;;;;;;;;;13.80;99.90;;;;;;2612744;54;19986;-72
2023/10/24 10:11:52;;;;;;;;;;;13.80;99.90;;;;;;2615189;54;19957;-74
2023/10/24 10:14:31;;;;;;;;;;;13.80;99.90;;;;;;2615058;47;19974;-74
2023/10/24 10:17:08;;;;;;;;;;;13.80;99.90;;;;;;2616503;47;19943;-74
2023/10/24 10:19:49;;;;;;;;;;;13.80;99.90;;;;;;2615804;54;19949;-73
2023/10/24 10:22:30;;;;;;;;;;;13.80;99.90;;;;;;2616073;54;19939;-73
2023/10/24 10:25:12;;;;;;;;;;;13.80;99.90;;;;;;2616050;54;19942;-74
2023/10/24 10:27:46;;;;;;;;;;;13.80;99.90;;;;;;2616776;54;19951;-74
2023/10/24 10:30:21;;;;;;;;;;;13.80;99.90;;;;;;2615553;54;19946;-75
2023/10/24 10:33:04;;;;;;;;;;;13.80;99.90;;;;;;2617163;47;19953;-73
2023/10/24 10:35:50;;;;;;;;;;;13.90;99.90;;;;;;2616181;54;19943;-73
2023/10/24 10:38:27;;;;;;;;;;;13.90;99.90;;;;;;2616193;54;19966;-75
2023/10/24 10:40:57;;;;;;;;;;;13.90;99.90;;;;;;2615807;47;19954;-73
2023/10/24 10:43:31;;;;;;;;;;;14.00;99.90;;;;;;2615885;50;20063;-75
2023/10/24 10:46:16;;;;;;;;;;;13.90;99.90;;;;;;2616069;39;20350;-73
2023/10/24 10:48:50;;;;;;;;;;;14.00;99.90;;;;;;2615398;46;20405;-75
2023/10/24 10:51:22;;;;;;;;;;;13.90;99.90;;;;;;2615679;54;19946;-75
2023/10/24 10:53:56;;;;;;;;;;;14.00;99.90;;;;;;2615202;47;19950;-74
2023/10/24 10:56:30;;;;;;;;;;;14.00;99.90;;;;;;2615289;49;19951;-73
2023/10/24 10:59:19;;;;;;;;;;;14.00;99.90;;;;;;2615803;54;19934;-74
2023/10/24 11:01:57;;;;;;;;;;;14.00;99.90;;;;;;2615879;54;19946;-75
2023/10/24 11:04:30;;;;;;;;;;;14.00;99.90;;;;;;2614578;54;20046;-72
2023/10/24 11:07:01;;;;;;;;;;;14.00;99.90;;;;;;2615475;47;19974;-72
2023/10/24 11:09:35;;;;;;;;;;;14.00;99.90;;;;;;2615646;54;20426;-73
2023/10/24 11:12:20;;;;;;;;;;;14.00;99.90;;;;;;2615803;54;19946;-73
2023/10/24 11:15:04;;;;;;;;;;;14.00;99.90;;;;;;2612435;54;20006;-73
2023/10/24 11:17:34;;;;;;;;;;;14.10;99.90;;;;;;2613102;39;20357;-75
2023/10/24 11:20:08;;;;;;;;;;;14.10;99.90;;;;;;2612479;54;19947;-75
2023/10/24 11:22:51;;;;;;;;;;;14.10;99.90;;;;;;2617314;49;19966;-73
2023/10/24 11:25:21;;;;;;;;;;;14.20;99.90;;;;;;2618729;47;19953;-74
2023/10/24 11:27:51;;;;;;;;;;;14.20;99.90;;;;;;2610791;47;19958;-75
2023/10/24 11:30:21;;;;;;;;;;;14.20;99.90;;;;;;2597552;47;19950;-75
2023/10/24 11:32:50;;;;;;;;;;;14.20;99.90;;;;;;2601494;54;21407;-73
2023/10/24 11:35:23;;;;;;;;;;;14.20;99.90;;;;;;2598776;47;19950;-73
2023/10/24 11:37:53;;;;;;;;;;;14.30;99.90;;;;;;2599908;47;20031;-74
2023/10/24 11:40:23;;;;;;;;;;;14.30;99.90;;;;;;2600535;39;20461;-74
2023/10/24 11:42:53;;;;;;;;;;;14.30;99.90;;;;;;2600981;47;19946;-73
2023/10/24 11:45:24;;;;;;;;;;;14.30;99.90;;;;;;2599237;54;20424;-75
2023/10/24 11:47:55;;;;;;;;;;;14.30;99.90;;;;;;2603069;39;20584;-73
2023/10/24 11:50:40;;;;;;;;;;;14.30;99.90;;;;;;2602804;31;20413;-77
2023/10/24 11:53:12;;;;;;;;;;;14.30;99.90;;;;;;2604714;47;20009;-75
2023/10/24 11:55:42;;;;;;;;;;;14.30;99.90;;;;;;2604467;54;20114;-75
2023/10/24 11:58:12;;;;;;;;;;;14.30;99.90;;;;;;2603702;54;19957;-76
2023/10/24 12:00:42;;;;;;;;;;;14.30;99.90;;;;;;2603537;46;19954;-76
2023/10/24 12:03:12;;;;;;;;;;;14.10;99.90;;;;;;2600623;54;19947;-76
2023/10/24 12:05:53;;;;;;;;;;;14.30;99.90;;;;;;2596291;54;20466;-76
2023/10/24 12:08:28;;;;;;;;;;;14.80;99.90;;;;;;2600439;54;20455;-74
2023/10/24 12:10:58;;;;;;;;;;;14.20;99.90;;;;;;2602429;47;19986;-77
2023/10/24 12:13:29;;;;;;;;;;;14.20;99.90;;;;;;2601569;47;20450;-75
2023/10/24 12:15:59;;;;;;;;;;;14.20;99.90;;;;;;2602337;54;20449;-73
2023/10/24 12:18:29;;;;;;;;;;;13.20;99.90;;;;;;2600899;47;20042;-76
2023/10/24 12:20:59;;;;;;;;;;;14.20;99.90;;;;;;2602687;54;19947;-74
2023/10/24 12:23:31;;;;;;;;;;;14.20;99.90;;;;;;2600723;54;20512;-74
2023/10/24 12:26:01;;;;;;;;;;;14.20;99.90;;;;;;2603704;46;19973;-76
2023/10/24 12:28:32;;;;;;;;;;;14.20;99.90;;;;;;2600812;47;19954;-76
2023/10/24 12:31:02;;;;;;;;;;;14.20;99.90;;;;;;2607409;47;20464;-74
2023/10/24 12:33:31;;;;;;;;;;;14.20;99.90;;;;;;2615843;47;19970;-76
2023/10/24 12:36:02;;;;;;;;;;;14.20;99.90;;;;;;2615145;47;19947;-75
2023/10/24 12:38:34;;;;;;;;;;;14.20;99.90;;;;;;2615866;47;19953;-75
2023/10/24 12:41:04;;;;;;;;;;;14.20;99.90;;;;;;2618116;39;20361;-75
2023/10/24 12:43:34;;;;;;;;;;;14.20;99.90;;;;;;2615320;47;19950;-77
2023/10/24 12:46:04;;;;;;;;;;;14.20;99.90;;;;;;2616299;47;19954;-76
2023/10/24 12:48:34;;;;;;;;;;;14.20;99.90;;;;;;2615530;53;19950;-77
2023/10/24 12:51:21;;;;;;;;;;;14.20;99.90;;;;;;2617112;39;20701;-74
2023/10/24 12:53:54;;;;;;;;;;;14.20;99.90;;;;;;2616401;47;19965;-72
2023/10/24 12:56:23;;;;;;;;;;;14.20;99.90;;;;;;2616143;46;19988;-73
2023/10/24 12:58:54;;;;;;;;;;;14.20;99.90;;;;;;2616069;54;19953;-76
2023/10/24 13:01:24;;;;;;;;;;;14.20;99.90;;;;;;2617378;47;19954;-75
2023/10/24 13:03:54;;;;;;;;;;;14.20;99.90;;;;;;2623482;54;19990;-77
2023/10/24 13:06:24;;;;;;;;;;;14.20;99.90;;;;;;2621554;54;19949;-76
2023/10/24 13:08:56;;;;;;;;;;;14.10;99.90;;;;;;2617212;31;20486;-75
2023/10/24 13:11:26;;;;;;;;;;;14.20;99.90;;;;;;2617030;47;19950;-76
2023/10/24 13:13:56;;;;;;;;;;;14.20;99.90;;;;;;2617317;54;19970;-77
2023/10/24 13:16:26;;;;;;;;;;;14.20;99.90;;;;;;2617893;54;19938;-76
2023/10/24 13:18:55;;;;;;;;;;;14.20;99.90;;;;;;2617726;46;19939;-77
2023/10/24 13:21:25;;;;;;;;;;;14.20;99.90;;;;;;2620417;47;19947;-77
2023/10/24 13:23:57;;;;;;;;;;;14.20;99.90;;;;;;2617787;47;19957;-74
2023/10/24 13:26:27;;;;;;;;;;;14.30;99.90;;;;;;2618647;47;20484;-77
2023/10/24 13:28:56;;;;;;;;;;;14.30;99.90;;;;;;2618124;47;19946;-75
2023/10/24 13:31:26;;;;;;;;;;;14.30;99.90;;;;;;2620092;39;20032;-75
2023/10/24 13:33:56;;;;;;;;;;;14.30;99.90;;;;;;2618504;47;20450;-75
2023/10/24 13:36:46;;;;;;;;;;;14.50;99.90;;;;;;2617889;54;19974;-77
2023/10/24 13:39:19;;;;;;;;;;;14.30;99.90;;;;;;2619128;46;19950;-76
2023/10/24 13:41:48;;;;;;;;;;;14.30;99.90;;;;;;2617429;54;19950;-76
2023/10/24 13:44:19;;;;;;;;;;;14.30;99.90;;;;;;2616236;54;19961;-75
2023/10/24 13:46:49;;;;;;;;;;;14.30;99.90;;;;;;2616408;54;20463;-77
2023/10/24 13:49:19;;;;;;;;;;;14.40;99.90;;;;;;2617122;54;19950;-75
2023/10/24 13:51:49;;;;;;;;;;;14.30;99.90;;;;;;2598233;39;20573;-78
2023/10/24 13:54:21;;;;;;;;;;;14.30;99.90;;;;;;2600453;47;19982;-77
2023/10/24 13:56:51;;;;;;;;;;;14.30;99.90;;;;;;2602273;39;20358;-76
2023/10/24 13:59:21;;;;;;;;;;;14.30;99.90;;;;;;2602778;54;19972;-75
2023/10/24 14:01:50;;;;;;;;;;;14.30;99.90;;;;;;2603684;54;20027;-76
2023/10/24 14:04:20;;;;;;;;;;;14.30;99.90;;;;;;2602250;47;20442;-78
2023/10/24 14:06:50;;;;;;;;;;;14.30;99.90;;;;;;2601485;47;20472;-77
2023/10/24 14:09:22;;;;;;;;;;;14.30;99.90;;;;;;2601954;39;20387;-74
2023/10/24 14:11:52;;;;;;;;;;;14.30;99.90;;;;;;2601927;47;19957;-75
2023/10/24 14:14:23;;;;;;;;;;;14.30;99.90;;;;;;2600717;39;20515;-74
2023/10/24 14:16:53;;;;;;;;;;;14.20;99.90;;;;;;2605600;47;19954;-77
2023/10/24 14:19:23;;;;;;;;;;;14.20;99.90;;;;;;2610284;54;19950;-79
2023/10/24 14:21:57;;;;;;;;;;;14.20;99.90;;;;;;2614023;54;19966;-78
2023/10/24 14:24:30;;;;;;;;;;;14.20;99.90;;;;;;2613100;54;20019;-78
2023/10/24 14:26:59;;;;;;;;;;;14.20;99.90;;;;;;2610243;54;21267;-79
2023/10/24 14:29:29;;;;;;;;;;;14.30;99.90;;;;;;2611755;54;19953;-80
2023/10/24 14:31:59;;;;;;;;;;;14.50;99.90;;;;;;2608918;39;20350;-80
2023/10/24 14:34:29;;;;;;;;;;;14.40;99.90;;;;;;2610251;47;20004;-79
2023/10/24 14:36:59;;;;;;;;;;;14.40;99.90;;;;;;2608856;47;19950;-81
2023/10/24 14:39:32;;;;;;;;;;;14.40;99.90;;;;;;2606787;54;20479;-79
2023/10/24 14:42:01;;;;;;;;;;;14.40;99.90;;;;;;2608099;47;19947;-78
2023/10/24 14:44:31;;;;;;;;;;;14.40;99.90;;;;;;2607127;47;19954;-79
2023/10/24 14:47:03;;;;;;;;;;;14.40;99.90;;;;;;2609654;54;19953;-78
2023/10/24 14:49:33;;;;;;;;;;;14.50;99.90;;;;;;2608206;54;19954;-79
2023/10/24 14:52:03;;;;;;;;;;;14.50;99.90;;;;;;2607575;47;19946;-78
2023/10/24 14:54:35;;;;;;;;;;;14.60;99.90;;;;;;2608361;54;20027;-80
2023/10/24 14:57:06;;;;;;;;;;;14.60;99.90;;;;;;2610059;54;19946;-79
2023/10/24 14:59:35;;;;;;;;;;;14.60;99.90;;;;;;2607727;46;19970;-78
2023/10/24 15:02:06;;;;;;;;;;;14.60;99.90;;;;;;2615047;47;19958;-78
2023/10/24 15:04:36;;;;;;;;;;;14.70;99.90;;;;;;2624722;54;19943;-79
2023/10/24 15:07:06;;;;;;;;;;;14.80;99.90;;;;;;2629666;54;19977;-79
2023/10/24 15:09:38;;;;;;;;;;;14.90;99.90;;;;;;2629902;47;19990;-78
2023/10/24 15:12:09;;;;;;;;;;;14.90;99.90;;;;;;2617669;54;19983;-63
2023/10/24 15:14:39;;;;;;;;;;;15.00;99.90;;;;;;2617350;46;19993;-62
2023/10/24 15:17:09;;;;;;;;;;;15.00;99.90;;;;;;2617465;54;19970;-62
2023/10/24 15:19:39;;;;;;;;;;;15.00;99.90;;;;;;2615988;39;20364;-62
2023/10/24 15:22:09;;;;;;;;;;;15.00;99.90;;;;;;2616253;54;19946;-62
2023/10/24 15:24:41;;;;;;;;;;;15.00;99.90;;;;;;2617172;54;20473;-63
2023/10/24 15:27:11;;;;;;;;;;;15.00;99.90;;;;;;2617141;54;19990;-61
2023/10/24 15:29:41;;;;;;;;;;;15.00;99.90;;;;;;2616744;47;19946;-61
2023/10/24 15:32:12;;;;;;;;;;;14.90;99.90;;;;;;2616883;54;19934;-61
2023/10/24 15:34:42;;;;;;;;;;;14.90;99.90;;;;;;2615454;54;19961;-61
2023/10/24 15:37:12;;;;;;;;;;;14.80;99.90;;;;;;2616961;54;19953;-61
2023/10/24 15:39:46;;;;;;;;;;;14.80;99.90;;;;;;2616369;54;19961;-61
2023/10/24 15:42:16;;;;;;;;;;;14.80;99.90;;;;;;2615829;54;19935;-61
2023/10/24 15:44:46;;;;;;;;;;;14.80;99.90;;;;;;2615744;54;20524;-60
2023/10/24 15:47:16;;;;;;;;;;;14.80;99.90;;;;;;2616601;54;19946;-62
2023/10/24 15:49:45;;;;;;;;;;;14.80;99.90;;;;;;2614010;54;19946;-62
2023/10/24 15:52:15;;;;;;;;;;;14.80;99.90;;;;;;2615714;54;19950;-62
2023/10/24 15:54:48;;;;;;;;;;;14.80;99.90;;;;;;2614506;54;19953;-61
2023/10/24 15:57:17;;;;;;;;;;;14.80;99.90;;;;;;2616231;39;20377;-60
2023/10/24 15:59:47;;;;;;;;;;;14.80;99.90;;;;;;2614314;54;19942;-61
2023/10/24 16:02:17;;;;;;;;;;;14.90;99.90;;;;;;2611457;54;19942;-79
2023/10/24 16:04:47;;;;;;;;;;;14.80;99.90;;;;;;2604471;47;19966;-78
2023/10/24 16:07:17;;;;;;;;;;;14.80;99.90;;;;;;2603440;54;19954;-78
2023/10/24 16:12:24;;;;;;;;;;;14.70;99.90;;;;;;2623990;54;19954;-79
2023/10/24 16:14:54;;;;;;;;;;;14.60;99.90;;;;;;2625131;47;19934;-79
2023/10/24 16:17:24;;;;;;;;;;;14.60;99.90;;;;;;2626121;54;19946;-80
2023/10/24 16:19:54;;;;;;;;;;;14.50;99.90;;;;;;2626266;47;19951;-79
2023/10/24 16:22:24;;;;;;;;;;;14.50;99.90;;;;;;2626185;54;19947;-79
2023/10/24 16:24:54;;;;;;;;;;;14.30;99.90;;;;;;2626467;39;20368;-79
2023/10/24 16:27:27;;;;;;;;;;;14.30;99.90;;;;;;2626125;47;20054;-79
2023/10/24 16:29:56;;;;;;;;;;;14.30;99.90;;;;;;2626827;47;19950;-80
2023/10/24 16:32:27;;;;;;;;;;;14.20;99.90;;;;;;2627636;47;19947;-79
2023/10/24 16:34:58;;;;;;;;;;;14.10;99.90;;;;;;2627968;47;19994;-78
2023/10/24 16:37:28;;;;;;;;;;;14.10;99.90;;;;;;2628547;54;19947;-79
2023/10/24 16:39:58;;;;;;;;;;;13.90;99.90;;;;;;2629380;47;19976;-77
2023/10/24 16:42:31;;;;;;;;;;;13.90;99.90;;;;;;2629723;47;19951;-81
2023/10/24 16:45:01;;;;;;;;;;;13.80;99.90;;;;;;2628862;54;19950;-79
2023/10/24 16:47:31;;;;;;;;;;;13.80;99.90;;;;;;2628761;39;20370;-79
2023/10/24 16:50:01;;;;;;;;;;;13.70;99.90;;;;;;2628381;47;19951;-79
2023/10/24 16:52:31;;;;;;;;;;;13.40;99.90;;;;;;2625741;54;20970;-79
2023/10/24 16:55:01;;;;;;;;;;;13.60;99.90;;;;;;2627899;47;19941;-80
2023/10/24 16:57:33;;;;;;;;;;;13.50;99.90;;;;;;2630532;47;19942;-80
2023/10/24 17:00:03;;;;;;;;;;;13.50;99.90;;;;;;2630454;46;19933;-81
2023/10/24 19:54:46;;;;;;;;;;;13.50;99.90;;;;;;2614422;47;20385;-81
2023/10/24 19:57:16;;;;;;;;;;;10.70;99.90;;;;;;2629948;47;19927;-81
2023/10/24 20:00:00;;;;;;;;;;;10.60;99.90;;;;;;2629865;47;19994;-83
2023/10/24 20:03:04;;;;;;;;;;;10.60;99.90;;;;;;2629076;54;19927;-83
2023/10/24 20:05:49;;;;;;;;;;;10.50;99.90;;;;;;2629505;47;20650;-82
2023/10/24 20:08:20;;;;;;;;;;;10.50;99.90;;;;;;2629985;46;19955;-83
2023/10/24 20:10:53;;;;;;;;;;;10.50;99.90;;;;;;2629592;46;19950;-82
2023/10/24 20:13:44;;;;;;;;;;;10.50;99.90;;;;;;2629429;46;20018;-85
2023/10/24 20:16:16;;;;;;;;;;;10.50;99.90;;;;;;2629652;47;20696;-83
2023/10/24 20:19:04;;;;;;;;;;;10.50;99.90;;;;;;2629538;47;20850;-83
2023/10/24 20:22:07;;;;;;;;;;;10.60;99.90;;;;;;2630383;39;20842;-81
2023/10/24 20:24:54;;;;;;;;;;;10.50;99.90;;;;;;2628656;54;19972;-80
2023/10/24 20:30:09;;;;;;;;;;;10.50;99.90;;;;;;2609435;54;20426;-74
2023/10/24 20:32:40;;;;;;;;;;;10.50;99.90;;;;;;2610105;47;19957;-75
2023/10/24 20:35:14;;;;;;;;;;;10.50;99.90;;;;;;2614458;54;19942;-73
2023/10/24 20:37:44;;;;;;;;;;;10.50;99.90;;;;;;2612539;54;19941;-73
2023/10/24 20:40:15;;;;;;;;;;;10.50;99.90;;;;;;2616937;39;20348;-74
2023/10/24 20:42:44;;;;;;;;;;;10.40;99.90;;;;;;2615822;49;19935;-73
2023/10/24 20:45:17;;;;;;;;;;;10.40;99.90;;;;;;2616989;47;19939;-73
2023/10/24 20:47:47;;;;;;;;;;;10.40;99.90;;;;;;2617232;39;20344;-73
2023/10/24 20:50:18;;;;;;;;;;;10.30;99.90;;;;;;2615688;54;19938;-73
2023/10/24 20:52:48;;;;;;;;;;;10.20;99.90;;;;;;2616691;47;19951;-73
2023/10/24 20:55:17;;;;;;;;;;;10.30;99.90;;;;;;2616058;54;19942;-73
2023/10/24 20:57:47;;;;;;;;;;;10.20;99.90;;;;;;2616110;54;19934;-74
2023/10/24 21:00:20;;;;;;;;;;;10.30;99.90;;;;;;2616880;54;19969;-74
2023/10/24 21:02:49;;;;;;;;;;;10.20;99.90;;;;;;2616544;47;20030;-74
2023/10/24 21:05:19;;;;;;;;;;;10.20;99.90;;;;;;2616745;47;19955;-74
2023/10/24 21:07:51;;;;;;;;;;;10.20;99.90;;;;;;2616282;39;20750;-74
2023/10/24 21:10:20;;;;;;;;;;;10.20;99.90;;;;;;2617185;47;20028;-74
2023/10/24 21:12:52;;;;;;;;;;;10.10;99.90;;;;;;2617470;39;20363;-74
2023/10/24 21:15:27;;;;;;;;;;;10.10;99.90;;;;;;2617729;39;20408;-74
2023/10/24 21:17:57;;;;;;;;;;;10.10;99.90;;;;;;2617703;54;19986;-74
2023/10/24 21:20:27;;;;;;;;;;;10.10;99.90;;;;;;2617009;47;19946;-74
2023/10/24 21:22:56;;;;;;;;;;;10.00;99.90;;;;;;2616566;47;20438;-74
2023/10/24 21:25:26;;;;;;;;;;;10.10;99.90;;;;;;2616661;47;19969;-74
2023/10/24 21:27:56;;;;;;;;;;;10.00;99.90;;;;;;2616997;54;20449;-74
2023/10/24 21:30:28;;;;;;;;;;;10.00;99.90;;;;;;2617557;47;19947;-73
2023/10/24 21:32:58;;;;;;;;;;;9.90;99.90;;;;;;2617248;54;19939;-74
2023/10/24 21:35:28;;;;;;;;;;;9.90;99.90;;;;;;2617255;47;19970;-73
2023/10/24 21:37:57;;;;;;;;;;;9.90;99.90;;;;;;2617205;46;19953;-73
2023/10/24 21:40:27;;;;;;;;;;;9.90;99.90;;;;;;2617633;54;19945;-73
2023/10/24 21:42:57;;;;;;;;;;;9.90;99.90;;;;;;2616670;54;19939;-73
2023/10/24 21:45:29;;;;;;;;;;;9.90;99.90;;;;;;2617836;39;20349;-74
2023/10/24 21:47:58;;;;;;;;;;;9.90;99.90;;;;;;2617589;47;20030;-73
2023/10/24 21:50:30;;;;;;;;;;;9.90;99.90;;;;;;2618586;54;19947;-74